Date,TemperatureHighF,TemperatureAvgF,TemperatureLowF,DewpointHighF,DewpointAvgF,DewpointLowF,HumidityHigh,HumidityAvg,HumidityLow,PressureMaxIn,PressureMinIn,WindSpeedMaxMPH,WindSpeedAvgMPH,GustSpeedMaxMPH,PrecipitationSumIn
2013-6-1,102.5,77.3,59.2,57.0,51.4,27.6,79,49,8,29.74,29.58,11,1,18,0.00
2013-6-2,89.7,72.8,58.7,58.4,51.9,33.3,84,54,15,29.70,29.62,10,1,15,0.00
2013-6-3,86.5,67.3,56.7,57.7,52.9,46.8,88,65,27,29.78,29.66,8,1,14,0.00
2013-6-4,87.0,68.6,57.0,58.6,51.7,41.3,83,60,22,29.85,29.75,7,1,20,0.00
2013-6-5,89.3,69.1,54.5,58.2,52.5,44.5,87,61,22,29.89,29.75,10,1,13,0.00
2013-6-6,91.8,71.9,55.6,57.6,52.3,41.7,85,55,19,29.81,29.72,7,1,15,0.00
2013-6-7,93.6,71.6,54.8,58.5,53.8,47.5,89,58,24,29.77,29.64,6,1,13,0.00
2013-6-8,92.1,71.1,55.9,59.6,54.3,51.2,86,59,28,29.78,29.65,10,1,14,0.00
2013-6-9,90.3,71.0,55.6,59.2,49.5,27.0,86,54,11,29.79,29.74,6,1,14,0.00
2013-6-10,86.3,68.1,55.0,56.1,48.0,34.5,88,55,17,29.84,29.75,9,1,20,0.00
2013-6-11,97.8,73.8,53.1,53.5,44.9,31.3,70,41,10,29.83,29.73,7,1,13,0.00
2013-6-12,86.1,71.8,59.3,59.0,53.5,45.7,81,56,27,29.87,29.77,8,1,14,0.00
2013-6-13,92.3,72.0,55.6,57.7,52.8,45.2,88,57,22,29.89,29.75,8,1,13,0.00
2013-6-14,89.5,70.4,53.6,56.5,49.3,30.7,83,54,13,29.80,29.70,8,1,16,0.00
2013-6-15,87.8,67.5,53.2,54.7,47.9,35.5,89,57,16,29.86,29.75,7,1,14,0.00
2013-6-16,92.3,71.1,50.5,54.0,47.6,35.3,82,49,16,29.90,29.80,8,1,12,0.00
2013-6-17,93.8,74.3,54.7,53.2,47.7,35.3,81,44,14,29.85,29.76,8,1,15,0.00
2013-6-18,91.8,73.5,55.7,52.6,47.9,39.9,74,45,19,29.78,29.71,9,1,14,0.00
2013-6-19,89.7,71.4,55.3,56.2,50.0,39.0,89,53,20,29.75,29.66,8,1,14,0.00
2013-6-20,91.6,72.8,54.4,54.2,46.1,32.8,79,44,16,29.75,29.67,8,1,16,0.00
2013-6-21,91.0,72.2,53.6,51.1,43.8,37.3,62,39,18,29.79,29.69,8,1,16,0.00
2013-6-22,90.3,72.8,55.3,53.2,48.0,40.6,77,45,23,29.78,29.68,6,1,15,0.00
2013-6-23,86.1,68.8,55.4,55.5,51.2,43.2,87,58,26,29.75,29.66,8,1,17,0.00
2013-6-24,81.6,66.2,57.0,55.5,53.0,49.5,83,65,36,29.84,29.70,6,1,13,0.00
2013-6-25,89.7,73.2,57.8,59.6,55.5,52.3,83,57,31,29.87,29.77,10,1,12,0.00
2013-6-26,98.0,81.1,62.9,62.7,56.3,51.4,78,47,23,29.86,29.78,8,1,13,0.00
2013-6-27,102.3,83.8,66.0,61.3,54.9,44.1,73,41,16,29.90,29.82,7,1,13,0.00
2013-6-28,103.8,85.0,65.0,59.5,53.5,48.2,70,37,18,29.87,29.72,9,1,16,0.00
2013-6-29,109.1,87.3,66.6,57.3,51.1,39.6,60,33,11,29.77,29.60,6,1,19,0.00
2013-6-30,106.0,85.9,68.8,60.3,52.1,42.5,59,34,13,29.68,29.59,10,1,16,0.00